createdAt,value
2023-02-04T00:01:00.368Z,8.32
2023-02-04T00:03:26.884Z,8.82
2023-02-04T00:05:53.394Z,8.12
2023-02-04T00:08:19.824Z,8.12
2023-02-04T00:10:47.447Z,6.98
2023-02-04T00:13:13.888Z,6.48
2023-02-04T00:15:40.409Z,6.76
2023-02-04T00:18:07.195Z,6.59
2023-02-04T00:20:34.128Z,7.71
2023-02-04T00:23:00.562Z,7.28
2023-02-04T00:25:27.446Z,7.46
2023-02-04T00:27:54.217Z,6.65
2023-02-04T00:30:20.894Z,6.83
2023-02-04T00:32:47.390Z,7.07
2023-02-04T00:35:13.844Z,6.77
2023-02-04T00:37:40.294Z,7.11
2023-02-04T00:40:07.183Z,5.98
2023-02-04T00:42:33.689Z,7.07
2023-02-04T00:45:00.195Z,7.20
2023-02-04T00:47:26.629Z,7.36
2023-02-04T00:49:53.096Z,7.47
2023-02-04T00:52:19.547Z,6.83
2023-02-04T00:54:46.006Z,7.47
2023-02-04T00:57:12.425Z,7.36
2023-02-04T00:59:38.847Z,7.09
2023-02-04T01:02:05.315Z,7.31
2023-02-04T01:04:31.769Z,7.31
2023-02-04T01:06:58.423Z,7.47
2023-02-04T01:09:25.094Z,7.63
2023-02-04T01:11:51.536Z,7.26
2023-02-04T01:14:18.025Z,7.02
2023-02-04T01:16:45.431Z,7.22
2023-02-04T01:19:11.980Z,6.25
2023-02-04T01:21:40.776Z,6.62
2023-02-04T01:24:07.495Z,7.08
2023-02-04T01:26:33.943Z,6.86
2023-02-04T01:29:00.405Z,6.63
2023-02-04T01:31:26.902Z,6.12
2023-02-04T01:33:53.370Z,7.04
2023-02-04T01:36:21.683Z,6.78
2023-02-04T01:38:49.279Z,7.05
2023-02-04T01:41:17.162Z,5.93
2023-02-04T01:43:43.701Z,6.80
2023-02-04T01:46:10.353Z,7.43
2023-02-04T01:48:36.894Z,6.88
2023-02-04T01:51:07.342Z,6.87
2023-02-04T01:53:35.191Z,6.59
2023-02-04T01:56:02.058Z,5.48
2023-02-04T01:58:32.150Z,6.80
2023-02-04T02:00:58.641Z,5.93
2023-02-04T02:03:25.045Z,6.11
2023-02-04T02:05:53.993Z,6.64
2023-02-04T02:08:20.554Z,6.24
2023-02-04T02:10:48.901Z,6.30
2023-02-04T02:13:18.567Z,6.66
2023-02-04T02:15:45.766Z,6.48
2023-02-04T02:18:12.887Z,6.33
2023-02-04T02:20:39.424Z,6.58
2023-02-04T02:23:26.986Z,5.50
2023-02-04T02:25:53.471Z,6.44
2023-02-04T02:28:21.915Z,5.81
2023-02-04T02:30:49.725Z,6.24
2023-02-04T02:33:19.492Z,7.05
2023-02-04T02:35:49.830Z,5.70
2023-02-04T02:38:18.213Z,5.34
2023-02-04T02:40:45.591Z,5.81
2023-02-04T02:43:23.817Z,5.54
2023-02-04T02:45:50.507Z,6.54
2023-02-04T02:48:17.249Z,6.53
2023-02-04T02:50:44.441Z,5.92
2023-02-04T02:53:13.957Z,5.95
2023-02-04T02:55:41.438Z,6.76
2023-02-04T02:58:20.101Z,6.75
2023-02-04T03:00:46.588Z,5.80
2023-02-04T03:03:19.991Z,6.60
2023-02-04T03:05:52.094Z,6.71
2023-02-04T03:08:19.908Z,6.34
2023-02-04T03:10:46.969Z,6.95
2023-02-04T03:13:16.180Z,6.91
2023-02-04T03:15:44.956Z,6.91
2023-02-04T03:18:13.770Z,6.56
2023-02-04T03:20:41.167Z,6.05
2023-02-04T03:23:07.875Z,6.76
2023-02-04T03:25:34.363Z,6.89
2023-02-04T03:28:00.974Z,6.60
2023-02-04T03:30:27.790Z,5.75
2023-02-04T03:32:54.295Z,6.41
2023-02-04T03:35:20.967Z,6.76
2023-02-04T03:37:47.497Z,6.31
2023-02-04T03:40:14.310Z,6.18
2023-02-04T03:42:40.813Z,6.65
2023-02-04T03:45:07.601Z,6.51
2023-02-04T03:47:34.033Z,6.39
2023-02-04T03:50:00.541Z,6.43
2023-02-04T03:52:26.949Z,6.11
2023-02-04T03:54:53.378Z,6.47
2023-02-04T03:57:19.859Z,6.02
2023-02-04T03:59:46.430Z,6.35
2023-02-04T04:02:12.861Z,6.59
2023-02-04T04:04:39.406Z,6.69
2023-02-04T04:07:06.143Z,5.95
2023-02-04T04:09:32.564Z,6.48
2023-02-04T04:11:59.009Z,6.54
2023-02-04T04:14:25.423Z,6.46
2023-02-04T04:16:51.811Z,6.48
2023-02-04T04:19:18.213Z,6.17
2023-02-04T04:21:44.637Z,6.34
2023-02-04T04:24:11.034Z,6.41
2023-02-04T04:26:37.483Z,6.21
2023-02-04T04:29:03.944Z,6.18
2023-02-04T04:31:30.501Z,6.19
2023-02-04T04:33:56.972Z,6.18
2023-02-04T04:36:23.380Z,5.96
2023-02-04T04:38:49.804Z,5.95
2023-02-04T04:41:16.210Z,6.09
2023-02-04T04:43:42.617Z,6.09
2023-02-04T04:46:09.051Z,6.01
2023-02-04T04:48:35.470Z,6.04
2023-02-04T04:51:01.904Z,5.97
2023-02-04T04:53:28.311Z,5.51
2023-02-04T04:55:54.769Z,5.78
2023-02-04T04:58:21.219Z,5.75
2023-02-04T05:00:48.330Z,5.81
2023-02-04T05:03:14.779Z,5.89
2023-02-04T05:05:41.344Z,5.76
2023-02-04T05:08:12.918Z,5.80
2023-02-04T05:10:40.415Z,5.79
2023-02-04T05:13:07.095Z,5.72
2023-02-04T05:15:34.036Z,5.63
2023-02-04T05:18:00.430Z,5.50
2023-02-04T05:20:26.988Z,5.17
2023-02-04T05:22:53.452Z,5.69
2023-02-04T05:25:19.920Z,4.94
2023-02-04T05:27:46.330Z,5.63
2023-02-04T05:30:13.286Z,5.94
2023-02-04T05:32:40.141Z,5.30
2023-02-04T05:35:07.545Z,5.58
2023-02-04T05:37:34.096Z,5.47
2023-02-04T05:40:00.566Z,5.31
2023-02-04T05:42:27.032Z,5.17
2023-02-04T05:44:53.434Z,5.48
2023-02-04T05:47:20.480Z,5.60
2023-02-04T05:49:46.951Z,5.69
2023-02-04T05:52:13.397Z,6.04
2023-02-04T05:54:39.896Z,5.90
2023-02-04T05:57:06.342Z,5.70
2023-02-04T05:59:32.735Z,5.05
2023-02-04T06:01:59.185Z,5.38
2023-02-04T06:04:25.749Z,6.18
2023-02-04T06:06:52.205Z,6.22
2023-02-04T06:09:18.638Z,5.87
2023-02-04T06:11:45.033Z,6.31
2023-02-04T06:14:11.449Z,6.42
2023-02-04T06:16:37.985Z,6.62
2023-02-04T06:19:04.473Z,6.72
2023-02-04T06:21:30.876Z,6.69
2023-02-04T06:23:57.299Z,6.61
2023-02-04T06:26:23.797Z,6.71
2023-02-04T06:28:50.217Z,6.74
2023-02-04T06:31:16.694Z,6.64
2023-02-04T06:33:43.198Z,6.04
2023-02-04T06:36:09.655Z,6.05
2023-02-04T06:38:37.135Z,5.84
2023-02-04T06:41:03.683Z,5.96
2023-02-04T06:43:30.120Z,5.71
2023-02-04T06:45:56.606Z,6.35
2023-02-04T06:48:23.272Z,5.58
2023-02-04T06:50:49.706Z,6.48
2023-02-04T06:53:16.145Z,6.07
2023-02-04T06:55:42.731Z,5.45
2023-02-04T06:58:09.682Z,6.33
2023-02-04T07:00:36.219Z,5.40
2023-02-04T07:03:02.719Z,5.65
2023-02-04T07:05:29.184Z,6.10
2023-02-04T07:07:56.212Z,6.23
2023-02-04T07:10:22.640Z,4.94
2023-02-04T07:12:49.051Z,4.57
2023-02-04T07:15:15.675Z,4.68
2023-02-04T07:17:42.334Z,4.30
2023-02-04T07:20:10.642Z,4.74
2023-02-04T07:22:37.065Z,5.51
2023-02-04T07:25:03.832Z,5.27
2023-02-04T07:27:30.466Z,4.87
2023-02-04T07:29:56.885Z,4.48
2023-02-04T07:32:23.358Z,4.62
2023-02-04T07:34:49.754Z,5.61
2023-02-04T07:37:16.199Z,6.11
2023-02-04T07:39:42.607Z,6.08
2023-02-04T07:42:09.210Z,6.18
2023-02-04T07:44:37.423Z,5.79
2023-02-04T07:47:03.894Z,5.67
2023-02-04T07:49:30.434Z,6.08
2023-02-04T07:51:57.851Z,4.90
2023-02-04T07:54:24.270Z,6.40
2023-02-04T07:56:50.678Z,6.02
2023-02-04T07:59:17.084Z,7.09
2023-02-04T08:01:43.571Z,5.76
2023-02-04T08:04:10.162Z,6.32
2023-02-04T08:06:36.559Z,7.56
2023-02-04T08:09:03.011Z,8.29
2023-02-04T08:11:29.412Z,8.63
2023-02-04T08:13:55.893Z,9.25
2023-02-04T08:16:22.452Z,9.59
2023-02-04T08:18:48.901Z,11.14
2023-02-04T08:21:15.275Z,11.20
2023-02-04T08:23:41.888Z,9.27
2023-02-04T08:26:12.006Z,7.39
2023-02-04T08:28:38.936Z,10.38
2023-02-04T08:31:07.080Z,9.36
2023-02-04T08:33:33.590Z,7.97
2023-02-04T08:36:00.059Z,8.94
2023-02-04T08:38:26.683Z,8.52
2023-02-04T08:40:53.364Z,9.03
2023-02-04T08:43:19.857Z,8.54
2023-02-04T08:45:46.262Z,8.11
2023-02-04T08:48:12.664Z,7.83
2023-02-04T08:50:39.261Z,8.97
2023-02-04T08:53:05.673Z,7.37
2023-02-04T08:55:32.165Z,7.67
2023-02-04T08:57:59.169Z,9.05
2023-02-04T09:00:25.665Z,7.81
2023-02-04T09:02:52.096Z,8.54
2023-02-04T09:05:18.705Z,9.60
2023-02-04T09:07:45.206Z,8.27
2023-02-04T09:10:11.770Z,10.44
2023-02-04T09:12:38.228Z,12.88
2023-02-04T09:15:05.490Z,11.54
2023-02-04T09:17:31.982Z,11.99
2023-02-04T09:19:58.388Z,11.27
2023-02-04T09:22:24.869Z,9.97
2023-02-04T09:24:51.307Z,13.29
2023-02-04T09:27:17.737Z,9.87
2023-02-04T09:29:44.109Z,12.79
2023-02-04T09:32:10.649Z,13.79
2023-02-04T09:34:37.081Z,13.85
2023-02-04T09:37:03.534Z,14.57
2023-02-04T09:39:30.045Z,13.55
2023-02-04T09:41:56.943Z,12.49
2023-02-04T09:44:26.246Z,14.09
2023-02-04T09:46:55.792Z,13.59
2023-02-04T09:49:23.103Z,16.37
2023-02-04T09:51:50.547Z,14.46
2023-02-04T09:54:19.637Z,13.66
2023-02-04T09:56:46.815Z,13.80
2023-02-04T09:59:21.801Z,15.09
2023-02-04T10:01:54.883Z,12.91
2023-02-04T10:04:22.314Z,12.20
2023-02-04T10:06:48.955Z,14.81
2023-02-04T10:09:16.518Z,13.61
2023-02-04T10:11:45.659Z,13.39
2023-02-04T10:14:16.241Z,14.61
2023-02-04T10:16:43.806Z,15.53
2023-02-04T10:19:15.797Z,12.62
2023-02-04T10:21:44.603Z,11.87
2023-02-04T10:24:22.724Z,12.08
2023-02-04T10:26:49.196Z,10.47
2023-02-04T10:29:26.818Z,9.34
2023-02-04T10:31:53.445Z,9.41
2023-02-04T10:34:23.487Z,9.41
2023-02-04T10:36:57.556Z,8.28
2023-02-04T10:39:29.257Z,9.56
2023-02-04T10:42:00.412Z,7.75
2023-02-04T10:44:35.955Z,7.39
2023-02-04T10:47:05.203Z,5.88
2023-02-04T10:49:32.665Z,5.98
2023-02-04T10:52:00.739Z,6.43
2023-02-04T10:54:37.618Z,6.38
2023-02-04T10:57:26.220Z,6.50
2023-02-04T10:59:58.627Z,6.22
2023-02-04T11:02:33.383Z,6.71
2023-02-04T11:05:00.567Z,6.63
2023-02-04T11:07:27.637Z,5.54
2023-02-04T11:09:54.352Z,6.51
2023-02-04T11:12:23.865Z,5.78
2023-02-04T11:14:58.308Z,6.09
2023-02-04T11:17:32.930Z,6.66
2023-02-04T11:20:02.201Z,5.87
2023-02-04T11:22:44.082Z,6.84
2023-02-04T11:25:34.287Z,7.09
2023-02-04T11:28:13.059Z,7.82
2023-02-04T11:30:39.652Z,8.19
2023-02-04T11:33:21.290Z,8.05
2023-02-04T11:36:05.646Z,7.97
2023-02-04T11:38:32.933Z,7.82
2023-02-04T11:41:00.733Z,6.69
2023-02-04T11:43:28.072Z,7.38
2023-02-04T11:46:15.996Z,6.57
2023-02-04T11:48:43.205Z,7.09
2023-02-04T11:51:16.457Z,6.72
2023-02-04T11:53:43.384Z,8.19
2023-02-04T11:56:23.300Z,7.52
2023-02-04T11:58:50.644Z,6.85
2023-02-04T12:01:23.801Z,7.53
2023-02-04T12:03:56.641Z,7.16
2023-02-04T12:06:29.080Z,7.49
2023-02-04T12:09:22.469Z,8.60
2023-02-04T12:11:57.134Z,8.37
2023-02-04T12:14:36.866Z,8.86
2023-02-04T12:17:19.737Z,8.66
2023-02-04T12:19:46.290Z,8.47
2023-02-04T12:22:14.551Z,8.82
2023-02-04T12:24:41.354Z,8.69
2023-02-04T12:27:07.782Z,8.86
2023-02-04T12:29:34.179Z,8.37
2023-02-04T12:32:00.755Z,8.65
2023-02-04T12:34:27.230Z,8.94
2023-02-04T12:36:53.624Z,7.36
2023-02-04T12:39:22.923Z,7.28
2023-02-04T12:41:49.420Z,7.40
2023-02-04T12:44:17.381Z,8.06
2023-02-04T12:46:43.906Z,8.80
2023-02-04T12:49:10.372Z,8.80
2023-02-04T12:51:36.841Z,8.97
2023-02-04T12:54:03.256Z,9.05
2023-02-04T12:56:29.731Z,8.60
2023-02-04T12:58:56.157Z,8.96
2023-02-04T13:01:22.587Z,9.10
2023-02-04T13:03:49.003Z,8.80
2023-02-04T13:06:15.413Z,8.93
2023-02-04T13:08:41.895Z,8.68
2023-02-04T13:11:08.328Z,8.97
2023-02-04T13:13:34.734Z,8.79
2023-02-04T13:16:01.175Z,9.01
2023-02-04T13:18:27.632Z,9.03
2023-02-04T13:20:54.117Z,9.02
2023-02-04T13:23:20.555Z,9.06
2023-02-04T13:25:47.071Z,9.01
2023-02-04T13:28:14.093Z,9.00
2023-02-04T13:30:40.575Z,8.90
2023-02-04T13:33:07.029Z,8.44
2023-02-04T13:35:33.748Z,8.65
2023-02-04T13:38:00.352Z,8.85
2023-02-04T13:40:26.870Z,8.90
2023-02-04T13:42:53.276Z,8.74
2023-02-04T13:45:19.816Z,8.70
2023-02-04T13:47:47.970Z,8.76
2023-02-04T13:50:16.270Z,8.86
2023-02-04T13:52:42.704Z,9.02
2023-02-04T13:55:09.217Z,8.76
2023-02-04T13:57:37.324Z,8.88
2023-02-04T14:00:05.537Z,8.91
2023-02-04T14:02:31.987Z,8.63
2023-02-04T14:04:58.669Z,8.40
2023-02-04T14:07:25.203Z,8.22
2023-02-04T14:09:51.615Z,8.65
2023-02-04T14:12:18.050Z,8.95
2023-02-04T14:14:44.500Z,8.90
2023-02-04T14:17:10.937Z,8.69
2023-02-04T14:19:37.335Z,9.14
2023-02-04T14:22:03.865Z,8.90
2023-02-04T14:24:30.375Z,8.59
2023-02-04T14:26:56.877Z,9.14
2023-02-04T14:29:23.451Z,9.13
2023-02-04T14:31:50.033Z,8.12
2023-02-04T14:34:16.467Z,8.93
2023-02-04T14:36:42.861Z,9.17
2023-02-04T14:39:09.255Z,9.02
2023-02-04T14:41:35.720Z,8.70
2023-02-04T14:44:02.124Z,9.08
2023-02-04T14:46:28.560Z,8.41
2023-02-04T14:48:55.038Z,9.15
2023-02-04T14:51:21.857Z,9.47
2023-02-04T14:53:48.917Z,9.09
2023-02-04T14:56:16.061Z,9.08
2023-02-04T14:58:42.788Z,8.84
2023-02-04T15:01:09.235Z,8.14
2023-02-04T15:03:36.012Z,8.18
2023-02-04T15:06:02.800Z,8.87
2023-02-04T15:08:29.320Z,8.90
2023-02-04T15:10:55.757Z,8.27
2023-02-04T15:13:22.350Z,7.22
2023-02-04T15:15:48.787Z,7.21
2023-02-04T15:18:15.407Z,7.33
2023-02-04T15:20:41.832Z,7.69
2023-02-04T15:23:08.359Z,7.37
2023-02-04T15:25:35.246Z,7.41
2023-02-04T15:28:01.802Z,7.57
2023-02-04T15:30:28.297Z,8.07
2023-02-04T15:32:54.782Z,8.45
2023-02-04T15:35:21.912Z,8.38
2023-02-04T15:37:51.138Z,8.83
2023-02-04T15:40:17.826Z,8.89
2023-02-04T15:42:44.228Z,8.88
2023-02-04T15:45:10.706Z,8.81
2023-02-04T15:47:37.294Z,8.66
2023-02-04T15:50:06.427Z,8.75
2023-02-04T15:52:32.829Z,8.66
2023-02-04T15:54:59.608Z,7.85
2023-02-04T15:57:26.050Z,7.03
2023-02-04T15:59:52.570Z,6.59
2023-02-04T16:02:18.985Z,6.78
2023-02-04T16:04:47.798Z,7.10
2023-02-04T16:07:14.305Z,7.30
2023-02-04T16:09:40.970Z,7.22
2023-02-04T16:12:07.580Z,7.42
2023-02-04T16:14:34.201Z,7.77
2023-02-04T16:17:01.745Z,7.18
2023-02-04T16:19:28.960Z,7.16
2023-02-04T16:21:55.507Z,7.11
2023-02-04T16:24:21.961Z,6.46
2023-02-04T16:26:48.384Z,6.73
2023-02-04T16:29:14.790Z,6.96
2023-02-04T16:31:41.225Z,6.92
2023-02-04T16:34:07.696Z,6.82
2023-02-04T16:36:34.104Z,7.22
2023-02-04T16:39:02.755Z,7.61
2023-02-04T16:41:29.319Z,7.69
2023-02-04T16:43:55.752Z,7.67
2023-02-04T16:46:22.157Z,7.61
2023-02-04T16:48:48.662Z,7.51
2023-02-04T16:51:15.066Z,7.55
2023-02-04T16:53:41.567Z,7.44
2023-02-04T16:56:08.051Z,7.44
2023-02-04T16:58:34.510Z,7.36
2023-02-04T17:01:00.932Z,7.36
2023-02-04T17:03:28.097Z,7.41
2023-02-04T17:05:55.027Z,7.10
2023-02-04T17:08:21.904Z,7.14
2023-02-04T17:11:07.432Z,7.11
2023-02-04T17:13:34.318Z,7.13
2023-02-04T17:16:01.258Z,6.90
2023-02-04T17:18:30.107Z,7.12
2023-02-04T17:20:57.521Z,7.22
2023-02-04T17:23:24.206Z,7.11
2023-02-04T17:25:50.629Z,7.16
2023-02-04T17:28:17.398Z,7.11
2023-02-04T17:30:44.022Z,7.07
2023-02-04T17:33:10.479Z,7.08
2023-02-04T17:35:36.915Z,7.02
2023-02-04T17:38:03.440Z,6.98
2023-02-04T17:40:30.254Z,6.88
2023-02-04T17:42:56.767Z,6.94
2023-02-04T17:45:23.180Z,6.91
2023-02-04T17:47:49.563Z,6.70
2023-02-04T17:50:16.273Z,6.76
2023-02-04T17:52:42.775Z,6.77
2023-02-04T17:55:27.477Z,6.81
2023-02-04T17:57:55.150Z,6.69
2023-02-04T18:00:25.014Z,6.53
2023-02-04T18:02:52.628Z,6.49
2023-02-04T18:05:22.268Z,5.20
2023-02-04T18:08:15.586Z,5.17
2023-02-04T18:10:46.859Z,5.41
2023-02-04T18:13:20.493Z,5.97
2023-02-04T18:15:49.661Z,6.38
2023-02-04T18:18:26.231Z,6.41
2023-02-04T18:21:03.125Z,6.33
2023-02-04T18:23:32.537Z,6.33
2023-02-04T18:26:10.095Z,6.35
2023-02-04T18:28:39.482Z,6.07
2023-02-04T18:31:31.829Z,6.23
2023-02-04T18:33:58.551Z,6.21
2023-02-04T18:36:27.331Z,5.80
2023-02-04T18:38:55.211Z,6.10
2023-02-04T18:41:28.410Z,5.80
2023-02-04T18:44:02.467Z,6.09
2023-02-04T18:46:33.325Z,6.09
2023-02-04T18:49:18.466Z,6.07
2023-02-04T18:51:45.712Z,6.02
2023-02-04T18:54:24.604Z,5.97
2023-02-04T18:56:53.300Z,5.93
2023-02-04T18:59:28.060Z,5.80
2023-02-04T19:01:54.577Z,5.72
2023-02-04T19:04:24.008Z,5.68
2023-02-04T19:06:52.230Z,5.59
2023-02-04T19:09:27.262Z,5.32
2023-02-04T19:11:55.723Z,5.41
2023-02-04T19:14:31.182Z,5.44
2023-02-04T19:17:18.859Z,5.42
2023-02-04T19:20:02.064Z,5.43
2023-02-04T19:22:56.908Z,5.39
2023-02-04T19:25:48.395Z,4.53
2023-02-04T19:28:30.213Z,3.94
2023-02-04T19:30:56.627Z,4.22
2023-02-04T19:33:30.444Z,5.04
2023-02-04T19:35:56.907Z,4.96
2023-02-04T19:41:28.327Z,5.11
2023-02-04T19:43:57.393Z,4.94
2023-02-04T19:46:25.143Z,5.13
2023-02-04T19:48:51.889Z,5.12
2023-02-04T19:51:25.415Z,5.22
2023-02-04T19:54:02.333Z,5.26
2023-02-04T19:56:34.223Z,5.18
2023-02-04T19:59:25.648Z,5.16
2023-02-04T20:02:07.430Z,5.19
2023-02-04T20:04:45.347Z,5.02
2023-02-04T20:07:37.292Z,5.18
2023-02-04T20:10:06.540Z,5.12
2023-02-04T20:12:33.448Z,5.07
2023-02-04T20:15:02.371Z,5.05
2023-02-04T20:17:36.209Z,5.07
2023-02-04T20:20:28.489Z,5.05
2023-02-04T20:23:14.600Z,5.05
2023-02-04T20:25:46.959Z,4.83
2023-02-04T20:28:35.014Z,4.74
2023-02-04T20:31:02.396Z,4.66
2023-02-04T20:33:46.942Z,4.70
2023-02-04T20:36:22.672Z,4.70
2023-02-04T20:38:49.176Z,4.84
2023-02-04T20:41:19.626Z,4.67
2023-02-04T20:43:48.796Z,4.69
2023-02-04T20:46:24.783Z,4.65
2023-02-04T20:48:51.657Z,4.61
2023-02-04T20:51:23.284Z,4.59
2023-02-04T20:53:50.956Z,4.53
2023-02-04T20:56:25.250Z,4.63
2023-02-04T20:58:55.784Z,4.56
2023-02-04T21:01:29.852Z,4.52
2023-02-04T21:03:57.925Z,4.49
2023-02-04T21:06:29.876Z,4.47
2023-02-04T21:08:58.116Z,4.34
2023-02-04T21:11:25.646Z,4.09
2023-02-04T21:13:53.939Z,3.97
2023-02-04T21:16:21.449Z,4.21
2023-02-04T21:18:47.895Z,4.11
2023-02-04T21:21:15.085Z,3.95
2023-02-04T21:23:41.813Z,3.89
2023-02-04T21:26:08.487Z,4.03
2023-02-04T21:28:35.117Z,4.17
2023-02-04T21:31:02.003Z,4.20
2023-02-04T21:33:28.593Z,4.09
2023-02-04T21:35:55.281Z,4.13
2023-02-04T21:38:21.708Z,4.14
2023-02-04T21:40:48.181Z,4.11
2023-02-04T21:43:14.624Z,4.10
2023-02-04T21:45:41.074Z,4.05
2023-02-04T21:48:08.019Z,4.00
2023-02-04T21:50:35.281Z,3.93
2023-02-04T21:53:01.792Z,3.75
2023-02-04T21:55:28.984Z,3.71
2023-02-04T21:57:55.482Z,3.86
2023-02-04T22:00:23.760Z,3.60
2023-02-04T22:02:54.204Z,3.98
2023-02-04T22:05:21.841Z,4.00
2023-02-04T22:07:49.275Z,4.00
2023-02-04T22:10:18.962Z,4.08
2023-02-04T22:12:45.446Z,3.77
2023-02-04T22:15:21.594Z,3.81
2023-02-04T22:17:49.009Z,3.98
2023-02-04T22:20:17.073Z,4.09
2023-02-04T22:22:44.877Z,4.01
2023-02-04T22:25:13.757Z,3.74
2023-02-04T22:27:40.341Z,3.84
2023-02-04T22:30:09.582Z,3.79
2023-02-04T22:32:36.034Z,4.06
2023-02-04T22:35:02.512Z,3.97
2023-02-04T22:37:29.013Z,3.92
2023-02-04T22:39:55.446Z,4.06
2023-02-04T22:42:21.900Z,3.81
2023-02-04T22:44:48.297Z,3.60
2023-02-04T22:47:14.750Z,3.61
2023-02-04T22:49:41.206Z,3.63
2023-02-04T22:52:07.962Z,3.55
2023-02-04T22:54:34.611Z,3.53
2023-02-04T22:57:01.130Z,3.79
2023-02-04T22:59:28.070Z,3.95
2023-02-04T23:01:55.603Z,3.66
2023-02-04T23:04:22.915Z,3.85
2023-02-04T23:06:50.113Z,3.75
2023-02-04T23:09:16.895Z,4.08
2023-02-04T23:11:43.420Z,4.07
2023-02-04T23:14:10.126Z,3.71
2023-02-04T23:16:36.685Z,3.50
2023-02-04T23:19:03.945Z,3.60
2023-02-04T23:21:31.122Z,3.69
2023-02-04T23:23:57.646Z,3.52
2023-02-04T23:26:24.286Z,3.24
2023-02-04T23:28:50.714Z,3.01
2023-02-04T23:31:17.216Z,2.97
2023-02-04T23:33:43.674Z,3.13
2023-02-04T23:36:10.493Z,2.87
2023-02-04T23:38:36.945Z,2.82
2023-02-04T23:41:03.411Z,2.87
2023-02-04T23:43:30.071Z,3.09
2023-02-04T23:45:57.247Z,3.13
2023-02-04T23:48:24.352Z,2.81
2023-02-04T23:50:51.360Z,2.73
2023-02-04T23:53:19.279Z,2.93
2023-02-04T23:55:46.396Z,2.97
2023-02-04T23:58:12.959Z,2.77
